createdAt,value
2022-11-12T00:00:52.049Z,7.48
2022-11-12T00:03:18.820Z,7.36
2022-11-12T00:05:46.065Z,7.22
2022-11-12T00:08:13.406Z,7.11
2022-11-12T00:10:40.041Z,7.06
2022-11-12T00:13:07.118Z,7.03
2022-11-12T00:15:33.815Z,6.86
2022-11-12T00:18:00.501Z,7.04
2022-11-12T00:20:27.091Z,6.98
2022-11-12T00:22:53.741Z,6.94
2022-11-12T00:25:20.315Z,6.92
2022-11-12T00:27:46.923Z,6.93
2022-11-12T00:30:13.656Z,6.73
2022-11-12T00:32:40.256Z,6.70
2022-11-12T00:35:12.506Z,6.76
2022-11-12T00:37:40.560Z,6.82
2022-11-12T00:40:08.060Z,6.80
2022-11-12T00:42:34.720Z,6.78
2022-11-12T00:45:01.364Z,6.69
2022-11-12T00:47:28.005Z,6.82
2022-11-12T00:49:54.744Z,6.92
2022-11-12T00:52:21.317Z,6.85
2022-11-12T00:54:48.423Z,6.80
2022-11-12T00:57:15.000Z,6.80
2022-11-12T00:59:41.631Z,6.75
2022-11-12T01:02:08.314Z,6.82
2022-11-12T01:04:34.952Z,6.81
2022-11-12T01:07:01.613Z,6.84
2022-11-12T01:09:28.315Z,6.87
2022-11-12T01:11:55.229Z,6.94
2022-11-12T01:14:21.853Z,6.92
2022-11-12T01:16:48.508Z,6.92
2022-11-12T01:19:15.179Z,6.81
2022-11-12T01:21:44.151Z,6.70
2022-11-12T01:24:11.411Z,6.85
2022-11-12T01:26:38.572Z,6.68
2022-11-12T01:29:05.454Z,6.75
2022-11-12T01:31:35.678Z,6.68
2022-11-12T01:34:07.562Z,6.69
2022-11-12T01:36:39.543Z,6.70
2022-11-12T01:39:08.306Z,6.73
2022-11-12T01:41:38.305Z,6.76
2022-11-12T01:44:10.992Z,6.71
2022-11-12T01:46:58.729Z,6.73
2022-11-12T01:49:31.763Z,6.84
2022-11-12T01:52:16.317Z,6.82
2022-11-12T01:54:47.051Z,6.82
2022-11-12T01:57:14.214Z,6.26
2022-11-12T02:02:16.953Z,6.60
2022-11-12T02:04:43.871Z,6.63
2022-11-12T02:07:11.505Z,6.43
2022-11-12T02:09:38.181Z,6.52
2022-11-12T02:12:05.880Z,6.30
2022-11-12T02:14:32.908Z,6.45
2022-11-12T02:17:00.175Z,6.33
2022-11-12T02:19:27.055Z,6.30
2022-11-12T02:21:53.701Z,6.25
2022-11-12T02:24:20.222Z,6.25
2022-11-12T02:26:51.421Z,6.25
2022-11-12T02:29:18.061Z,6.13
2022-11-12T02:31:44.702Z,6.20
2022-11-12T02:34:11.329Z,6.17
2022-11-12T02:36:37.902Z,6.08
2022-11-12T02:39:05.028Z,6.13
2022-11-12T02:41:31.701Z,6.08
2022-11-12T02:43:58.284Z,6.17
2022-11-12T02:46:24.848Z,6.18
2022-11-12T02:48:51.450Z,6.40
2022-11-12T02:51:18.093Z,6.41
2022-11-12T02:53:44.683Z,6.48
2022-11-12T02:56:11.276Z,6.49
2022-11-12T02:58:37.878Z,6.37
2022-11-12T03:01:04.735Z,6.27
2022-11-12T03:03:31.421Z,6.13
2022-11-12T03:06:01.074Z,6.01
2022-11-12T03:08:28.596Z,5.94
2022-11-12T03:10:55.454Z,5.76
2022-11-12T03:13:22.257Z,5.70
2022-11-12T03:15:48.875Z,5.73
2022-11-12T03:18:16.544Z,5.78
2022-11-12T03:20:43.173Z,5.75
2022-11-12T03:23:11.337Z,5.89
2022-11-12T03:25:38.291Z,5.88
2022-11-12T03:28:13.219Z,6.04
2022-11-12T03:30:41.995Z,5.98
2022-11-12T03:33:11.423Z,6.14
2022-11-12T03:35:39.192Z,6.14
2022-11-12T03:38:06.782Z,6.14
2022-11-12T03:40:34.749Z,6.21
2022-11-12T03:43:01.374Z,6.08
2022-11-12T03:45:28.602Z,6.14
2022-11-12T03:47:57.038Z,6.06
2022-11-12T03:50:27.019Z,5.85
2022-11-12T03:52:56.821Z,5.82
2022-11-12T03:55:25.616Z,5.70
2022-11-12T03:57:53.257Z,5.81
2022-11-12T04:02:52.769Z,5.91
2022-11-12T04:05:38.206Z,5.92
2022-11-12T04:08:26.427Z,5.98
2022-11-12T04:10:53.259Z,5.78
2022-11-12T04:13:28.871Z,5.92
2022-11-12T04:16:20.014Z,5.82
2022-11-12T04:19:07.651Z,5.70
2022-11-12T04:21:51.416Z,5.72
2022-11-12T04:24:47.913Z,5.69
2022-11-12T04:27:18.468Z,5.76
2022-11-12T04:30:04.952Z,5.69
2022-11-12T04:32:33.312Z,5.55
2022-11-12T04:35:00.480Z,5.46
2022-11-12T04:37:29.955Z,5.60
2022-11-12T04:40:16.799Z,5.90
2022-11-12T04:43:06.515Z,6.01
2022-11-12T04:45:33.831Z,6.10
2022-11-12T04:48:00.479Z,6.02
2022-11-12T04:50:27.023Z,6.19
2022-11-12T04:52:53.556Z,5.80
2022-11-12T04:55:20.112Z,5.80
2022-11-12T04:57:46.650Z,5.92
2022-11-12T05:00:13.682Z,5.92
2022-11-12T05:02:40.250Z,5.89
2022-11-12T05:05:07.276Z,5.75
2022-11-12T05:07:33.947Z,5.80
2022-11-12T05:10:00.602Z,5.80
2022-11-12T05:12:27.244Z,6.01
2022-11-12T05:14:53.875Z,6.01
2022-11-12T05:17:20.470Z,6.05
2022-11-12T05:19:47.090Z,6.02
2022-11-12T05:22:33.224Z,6.06
2022-11-12T05:25:00.302Z,6.07
2022-11-12T05:27:26.928Z,6.20
2022-11-12T05:29:53.580Z,6.33
2022-11-12T05:32:20.293Z,6.26
2022-11-12T05:34:46.880Z,6.33
2022-11-12T05:37:14.572Z,6.42
2022-11-12T05:39:41.317Z,6.40
2022-11-12T05:42:13.428Z,6.33
2022-11-12T05:44:41.081Z,6.34
2022-11-12T05:47:07.757Z,6.32
2022-11-12T05:49:34.372Z,6.33
2022-11-12T05:52:00.999Z,6.22
2022-11-12T05:54:27.721Z,6.37
2022-11-12T05:56:54.368Z,6.24
2022-11-12T05:59:21.040Z,6.17
2022-11-12T06:01:47.842Z,6.05
2022-11-12T06:04:15.669Z,5.93
2022-11-12T06:06:43.123Z,5.75
2022-11-12T06:09:10.532Z,5.75
2022-11-12T06:11:38.169Z,5.97
2022-11-12T06:14:05.817Z,6.04
2022-11-12T06:16:32.852Z,5.90
2022-11-12T06:18:59.996Z,5.95
2022-11-12T06:21:28.153Z,5.98
2022-11-12T06:23:58.317Z,6.09
2022-11-12T06:26:28.073Z,6.03
2022-11-12T06:28:55.128Z,5.95
2022-11-12T06:31:22.826Z,5.98
2022-11-12T06:33:50.329Z,6.12
2022-11-12T06:36:18.960Z,6.11
2022-11-12T06:41:17.019Z,5.96
2022-11-12T06:43:43.866Z,5.91
2022-11-12T06:46:15.632Z,5.97
2022-11-12T06:48:42.617Z,5.93
2022-11-12T06:51:20.463Z,5.89
2022-11-12T06:53:48.142Z,5.98
2022-11-12T06:56:15.360Z,6.01
2022-11-12T06:58:42.309Z,6.11
2022-11-12T07:01:16.838Z,6.10
2022-11-12T07:03:44.607Z,6.10
2022-11-12T07:06:14.647Z,6.18
2022-11-12T07:08:42.386Z,6.28
2022-11-12T07:11:09.144Z,6.29
2022-11-12T07:13:36.835Z,6.39
2022-11-12T07:16:06.100Z,6.45
2022-11-12T07:18:34.310Z,6.55
2022-11-12T07:21:05.940Z,6.46
2022-11-12T07:23:34.178Z,6.52
2022-11-12T07:26:12.538Z,6.36
2022-11-12T07:28:39.317Z,6.61
2022-11-12T07:31:08.071Z,6.61
2022-11-12T07:33:34.696Z,6.64
2022-11-12T07:36:04.234Z,6.53
2022-11-12T07:38:32.876Z,6.32
2022-11-12T07:41:12.040Z,6.48
2022-11-12T07:43:39.876Z,6.47
2022-11-12T07:46:13.329Z,6.57
2022-11-12T07:48:40.604Z,6.60
2022-11-12T07:51:13.089Z,6.64
2022-11-12T07:53:40.736Z,6.77
2022-11-12T07:56:07.600Z,6.89
2022-11-12T07:58:34.744Z,7.03
2022-11-12T08:01:18.338Z,7.08
2022-11-12T08:03:44.990Z,7.17
2022-11-12T08:08:52.329Z,7.50
2022-11-12T08:11:19.297Z,7.60
2022-11-12T08:13:45.871Z,7.71
2022-11-12T08:16:12.722Z,7.89
2022-11-12T08:18:39.346Z,8.09
2022-11-12T08:21:10.568Z,8.08
2022-11-12T08:23:37.247Z,8.32
2022-11-12T08:26:06.475Z,8.55
2022-11-12T08:28:35.614Z,8.69
2022-11-12T08:31:11.263Z,8.78
2022-11-12T08:33:38.227Z,8.95
2022-11-12T08:36:07.292Z,8.98
2022-11-12T08:38:34.346Z,9.20
2022-11-12T08:41:02.612Z,9.38
2022-11-12T08:43:29.333Z,9.27
2022-11-12T08:45:59.529Z,9.19
2022-11-12T08:48:27.883Z,9.24
2022-11-12T08:50:55.300Z,9.45
2022-11-12T08:53:23.784Z,9.52
2022-11-12T08:55:55.299Z,9.57
2022-11-12T08:58:22.769Z,9.61
2022-11-12T09:00:51.078Z,9.52
2022-11-12T09:03:19.736Z,9.77
2022-11-12T09:05:46.478Z,9.89
2022-11-12T09:08:18.798Z,9.91
2022-11-12T09:10:46.086Z,9.94
2022-11-12T09:13:14.220Z,9.93
2022-11-12T09:15:41.042Z,10.21
2022-11-12T09:18:11.193Z,10.15
2022-11-12T09:20:37.831Z,10.10
2022-11-12T09:23:13.993Z,10.05
2022-11-12T09:25:41.789Z,9.87
2022-11-12T09:28:13.844Z,10.03
2022-11-12T09:30:48.983Z,9.99
2022-11-12T09:33:17.807Z,9.97
2022-11-12T09:35:45.827Z,10.05
2022-11-12T09:38:14.918Z,10.14
2022-11-12T09:40:57.824Z,10.11
2022-11-12T09:43:43.096Z,10.18
2022-11-12T09:46:27.654Z,10.10
2022-11-12T09:49:36.557Z,10.14
2022-11-12T09:52:06.551Z,10.12
2022-11-12T09:54:35.491Z,10.12
2022-11-12T09:57:02.486Z,10.10
2022-11-12T09:59:32.124Z,10.24
2022-11-12T10:02:23.483Z,10.18
2022-11-12T10:05:02.325Z,10.05
2022-11-12T10:07:37.724Z,10.05
2022-11-12T10:10:15.117Z,10.05
2022-11-12T10:13:00.734Z,10.25
2022-11-12T10:15:54.629Z,10.13
2022-11-12T10:18:36.198Z,10.22
2022-11-12T10:21:16.855Z,10.25
2022-11-12T10:23:47.937Z,10.37
2022-11-12T10:29:14.654Z,10.54
2022-11-12T10:31:41.258Z,10.57
2022-11-12T10:34:13.673Z,10.69
2022-11-12T10:36:45.495Z,10.69
2022-11-12T10:39:38.197Z,10.69
2022-11-12T10:42:08.624Z,10.77
2022-11-12T10:44:35.328Z,10.69
2022-11-12T10:47:24.943Z,10.67
2022-11-12T10:50:10.394Z,10.73
2022-11-12T10:52:37.411Z,10.73
2022-11-12T10:55:16.092Z,10.55
2022-11-12T10:57:42.780Z,10.77
2022-11-12T11:00:19.462Z,10.78
2022-11-12T11:02:52.384Z,11.00
2022-11-12T11:05:48.656Z,11.03
2022-11-12T11:08:15.360Z,11.13
2022-11-12T11:10:42.136Z,11.23
2022-11-12T11:13:23.718Z,11.36
2022-11-12T11:16:04.910Z,11.47
2022-11-12T11:18:34.712Z,11.61
2022-11-12T11:21:21.233Z,11.63
2022-11-12T11:24:14.185Z,11.65
2022-11-12T11:26:57.096Z,11.46
2022-11-12T11:32:37.937Z,11.41
2022-11-12T11:38:20.223Z,11.88
2022-11-12T11:41:24.253Z,11.98
2022-11-12T11:44:14.095Z,12.14
2022-11-12T11:47:02.298Z,12.24
2022-11-12T11:49:56.432Z,12.22
2022-11-12T11:52:31.663Z,12.36
2022-11-12T11:55:19.696Z,12.49
2022-11-12T11:58:13.425Z,12.55
2022-11-12T12:00:55.110Z,12.66
2022-11-12T12:03:31.740Z,12.72
2022-11-12T12:06:15.315Z,12.77
2022-11-12T12:08:53.845Z,12.90
2022-11-12T12:11:29.412Z,12.91
2022-11-12T12:14:17.108Z,12.94
2022-11-12T12:16:56.757Z,12.96
2022-11-12T12:19:32.470Z,12.99
2022-11-12T12:22:01.471Z,13.13
2022-11-12T12:24:42.084Z,13.12
2022-11-12T12:27:14.675Z,13.16
2022-11-12T12:29:49.542Z,13.19
2022-11-12T12:32:39.375Z,13.34
2022-11-12T12:35:29.158Z,13.33
2022-11-12T12:38:06.092Z,13.21
2022-11-12T12:40:43.507Z,13.22
2022-11-12T12:43:40.756Z,13.24
2022-11-12T12:46:12.947Z,13.14
2022-11-12T12:48:42.959Z,13.25
2022-11-12T12:51:09.953Z,13.21
2022-11-12T12:53:37.182Z,13.19
2022-11-12T12:56:07.390Z,13.19
2022-11-12T12:58:47.223Z,13.13
2022-11-12T13:01:29.555Z,13.13
2022-11-12T13:03:58.737Z,13.25
2022-11-12T13:06:29.451Z,13.16
2022-11-12T13:09:12.941Z,13.11
2022-11-12T13:12:01.093Z,13.15
2022-11-12T13:14:39.362Z,13.67
2022-11-12T13:17:08.662Z,13.46
2022-11-12T13:20:08.227Z,13.35
2022-11-12T13:22:40.736Z,13.25
2022-11-12T13:25:13.391Z,13.08
2022-11-12T13:27:40.223Z,13.05
2022-11-12T13:30:31.013Z,13.07
2022-11-12T13:32:59.190Z,13.03
2022-11-12T13:35:30.195Z,13.10
2022-11-12T13:38:02.769Z,13.03
2022-11-12T13:40:50.642Z,12.99
2022-11-12T13:43:34.477Z,12.95
2022-11-12T13:46:06.678Z,12.96
2022-11-12T13:48:42.781Z,12.86
2022-11-12T13:51:20.484Z,12.90
2022-11-12T13:53:47.155Z,12.90
2022-11-12T13:56:28.734Z,13.63
2022-11-12T13:58:56.054Z,13.29
2022-11-12T14:01:24.392Z,13.11
2022-11-12T14:03:53.139Z,13.10
2022-11-12T14:06:37.796Z,12.96
2022-11-12T14:09:26.355Z,12.94
2022-11-12T14:12:15.813Z,12.82
2022-11-12T14:15:20.233Z,12.79
2022-11-12T14:18:21.846Z,12.79
2022-11-12T14:20:48.902Z,12.74
2022-11-12T14:23:24.119Z,12.72
2022-11-12T14:28:31.338Z,12.66
2022-11-12T14:30:59.915Z,12.61
2022-11-12T14:33:28.534Z,12.55
2022-11-12T14:36:08.191Z,12.45
2022-11-12T14:44:13.034Z,12.37
2022-11-12T14:46:49.864Z,12.36
2022-11-12T14:49:49.136Z,12.26
2022-11-12T14:57:31.286Z,12.10
2022-11-12T14:59:58.593Z,12.10
2022-11-12T15:02:40.160Z,12.01
2022-11-12T15:05:19.375Z,11.91
2022-11-12T15:07:56.193Z,11.82
2022-11-12T15:10:35.096Z,11.71
2022-11-12T15:13:15.223Z,11.60
2022-11-12T15:16:04.995Z,11.50
2022-11-12T15:18:33.873Z,11.52
2022-11-12T15:21:06.601Z,11.46
2022-11-12T15:23:33.677Z,11.47
2022-11-12T15:26:02.099Z,11.38
2022-11-12T15:28:28.878Z,11.53
2022-11-12T15:31:17.669Z,11.42
2022-11-12T15:33:44.760Z,11.40
2022-11-12T15:36:18.019Z,11.43
2022-11-12T15:38:50.001Z,11.42
2022-11-12T15:41:27.326Z,11.22
2022-11-12T15:43:54.099Z,11.10
2022-11-12T15:46:20.931Z,10.97
2022-11-12T15:48:52.857Z,10.93
2022-11-12T15:51:22.552Z,10.78
2022-11-12T15:53:49.476Z,10.73
2022-11-12T15:56:22.123Z,10.88
2022-11-12T15:58:48.965Z,10.70
2022-11-12T16:01:15.838Z,10.62
2022-11-12T16:03:42.416Z,10.39
2022-11-12T16:06:12.472Z,10.37
2022-11-12T16:08:39.121Z,10.32
2022-11-12T16:11:26.021Z,10.47
2022-11-12T16:13:52.720Z,10.30
2022-11-12T16:16:19.453Z,10.13
2022-11-12T16:18:46.198Z,10.00
2022-11-12T16:21:18.006Z,10.01
2022-11-12T16:23:47.351Z,9.97
2022-11-12T16:26:16.275Z,9.95
2022-11-12T16:28:44.006Z,9.95
2022-11-12T16:31:10.897Z,9.83
2022-11-12T16:33:37.844Z,9.93
2022-11-12T16:36:13.744Z,9.90
2022-11-12T16:38:40.541Z,9.75
2022-11-12T16:46:34.849Z,9.77
2022-11-12T16:49:01.712Z,9.68
2022-11-12T16:51:28.305Z,9.55
2022-11-12T16:53:55.026Z,9.55
2022-11-12T16:56:23.255Z,9.41
2022-11-12T16:58:50.537Z,9.31
2022-11-12T17:01:25.427Z,9.26
2022-11-12T17:03:56.644Z,9.39
2022-11-12T17:06:31.943Z,9.27
2022-11-12T17:08:58.631Z,9.26
2022-11-12T17:11:25.325Z,9.12
2022-11-12T17:13:52.034Z,9.06
2022-11-12T17:16:18.650Z,9.00
2022-11-12T17:18:45.324Z,8.95
2022-11-12T17:21:18.113Z,8.95
2022-11-12T17:23:44.793Z,9.07
2022-11-12T17:26:14.154Z,8.92
2022-11-12T17:28:41.142Z,8.92
2022-11-12T17:31:21.869Z,8.92
2022-11-12T17:33:53.298Z,8.80
2022-11-12T17:36:22.232Z,8.93
2022-11-12T17:38:49.018Z,8.98
2022-11-12T17:41:15.626Z,9.02
2022-11-12T17:43:42.340Z,8.82
2022-11-12T17:46:09.930Z,8.68
2022-11-12T17:48:37.970Z,8.56
2022-11-12T17:51:15.985Z,8.51
2022-11-12T17:53:43.500Z,8.47
2022-11-12T17:56:11.968Z,8.28
2022-11-12T17:58:38.671Z,8.37
2022-11-12T18:01:07.372Z,8.46
2022-11-12T18:03:40.033Z,8.43
2022-11-12T18:06:12.417Z,8.41
2022-11-12T18:08:40.134Z,8.36
2022-11-12T18:11:11.099Z,8.15
2022-11-12T18:13:37.912Z,8.47
2022-11-12T18:16:24.848Z,8.24
2022-11-12T18:18:55.434Z,7.99
2022-11-12T18:21:23.288Z,7.88
2022-11-12T18:23:50.186Z,7.86
2022-11-12T18:26:18.601Z,8.33
2022-11-12T18:28:53.995Z,8.03
2022-11-12T18:31:21.522Z,7.95
2022-11-12T18:33:49.204Z,7.85
2022-11-12T18:36:18.327Z,7.88
2022-11-12T18:38:46.962Z,7.70
2022-11-12T18:41:15.949Z,7.68
2022-11-12T18:43:42.772Z,7.89
2022-11-12T18:46:11.132Z,7.85
2022-11-12T18:48:38.363Z,7.96
2022-11-12T18:51:09.101Z,7.93
2022-11-12T18:53:37.372Z,7.78
2022-11-12T18:56:10.448Z,7.75
2022-11-12T18:58:37.110Z,7.64
2022-11-12T19:01:05.695Z,7.74
2022-11-12T19:06:12.943Z,7.78
2022-11-12T19:08:40.458Z,7.53
2022-11-12T19:11:12.029Z,7.61
2022-11-12T19:13:39.419Z,7.75
2022-11-12T19:16:10.891Z,7.58
2022-11-12T19:18:38.766Z,7.46
2022-11-12T19:21:11.120Z,7.55
2022-11-12T19:23:38.732Z,7.70
2022-11-12T19:26:08.020Z,7.67
2022-11-12T19:28:36.082Z,7.49
2022-11-12T19:31:16.503Z,7.39
2022-11-12T19:33:43.830Z,7.57
2022-11-12T19:36:13.752Z,7.51
2022-11-12T19:38:40.344Z,7.65
2022-11-12T19:41:10.585Z,7.56
2022-11-12T19:43:41.797Z,7.24
2022-11-12T19:46:09.854Z,7.18
2022-11-12T19:48:36.469Z,7.18
2022-11-12T19:51:04.903Z,7.14
2022-11-12T19:53:36.272Z,7.23
2022-11-12T19:56:05.105Z,7.30
2022-11-12T19:58:32.343Z,7.20
2022-11-12T20:01:09.918Z,7.17
2022-11-12T20:03:37.687Z,7.20
2022-11-12T20:06:08.924Z,7.28
2022-11-12T20:08:35.682Z,7.00
2022-11-12T20:11:02.819Z,6.93
2022-11-12T20:13:29.810Z,6.87
2022-11-12T20:15:56.483Z,7.10
2022-11-12T20:18:24.163Z,6.96
2022-11-12T20:20:56.551Z,6.94
2022-11-12T20:23:24.225Z,7.13
2022-11-12T20:25:52.548Z,6.86
2022-11-12T20:28:19.271Z,6.86
2022-11-12T20:30:46.440Z,6.88
2022-11-12T20:33:14.246Z,6.89
2022-11-12T20:35:40.952Z,6.75
2022-11-12T20:38:08.110Z,6.82
2022-11-12T20:40:34.806Z,6.67
2022-11-12T20:43:01.412Z,6.58
2022-11-12T20:45:28.123Z,6.73
2022-11-12T20:47:56.386Z,6.62
2022-11-12T20:50:23.674Z,6.57
2022-11-12T20:52:50.288Z,6.85
2022-11-12T20:55:17.058Z,6.77
2022-11-12T20:57:44.049Z,6.78
2022-11-12T21:00:14.091Z,6.58
2022-11-12T21:02:41.648Z,6.41
2022-11-12T21:05:08.488Z,6.78
2022-11-12T21:07:35.199Z,6.63
2022-11-12T21:10:01.991Z,6.49
2022-11-12T21:12:28.653Z,6.44
2022-11-12T21:14:55.317Z,6.48
2022-11-12T21:17:22.037Z,6.37
2022-11-12T21:19:48.682Z,6.23
2022-11-12T21:22:15.685Z,6.15
2022-11-12T21:24:42.390Z,6.13
2022-11-12T21:27:11.508Z,6.22
2022-11-12T21:29:38.223Z,6.30
2022-11-12T21:32:05.288Z,6.36
2022-11-12T21:34:32.088Z,6.13
2022-11-12T21:36:58.702Z,6.36
2022-11-12T21:39:25.321Z,6.17
2022-11-12T21:41:54.071Z,6.24
2022-11-12T21:44:21.210Z,6.46
2022-11-12T21:46:47.899Z,6.58
2022-11-12T21:49:14.534Z,6.36
2022-11-12T21:51:41.169Z,6.34
2022-11-12T21:54:08.132Z,6.36
2022-11-12T21:56:35.201Z,6.16
2022-11-12T21:59:04.231Z,5.98
2022-11-12T22:01:33.587Z,6.16
2022-11-12T22:04:00.604Z,6.02
2022-11-12T22:06:29.168Z,5.86
2022-11-12T22:08:57.577Z,6.07
2022-11-12T22:11:25.663Z,6.08
2022-11-12T22:13:52.491Z,5.92
2022-11-12T22:16:24.412Z,5.93
2022-11-12T22:18:53.438Z,5.88
2022-11-12T22:21:28.669Z,5.75
2022-11-12T22:23:56.326Z,5.75
2022-11-12T22:26:26.143Z,5.97
2022-11-12T22:28:54.078Z,5.93
2022-11-12T22:31:27.339Z,6.22
2022-11-12T22:33:54.703Z,5.99
2022-11-12T22:36:23.297Z,5.93
2022-11-12T22:38:52.083Z,5.88
2022-11-12T22:41:27.229Z,5.76
2022-11-12T22:43:56.492Z,6.00
2022-11-12T22:46:29.117Z,5.78
2022-11-12T22:48:56.163Z,5.79
2022-11-12T22:51:25.669Z,5.67
2022-11-12T22:53:59.698Z,5.56
2022-11-12T22:56:27.711Z,5.91
2022-11-12T22:58:55.727Z,5.73
2022-11-12T23:01:23.975Z,5.69
2022-11-12T23:03:52.223Z,5.75
2022-11-12T23:06:19.267Z,5.64
2022-11-12T23:08:46.271Z,5.63
2022-11-12T23:11:16.090Z,5.43
2022-11-12T23:13:42.811Z,5.58
2022-11-12T23:16:12.369Z,5.75
2022-11-12T23:18:39.116Z,5.82
2022-11-12T23:21:11.300Z,6.01
2022-11-12T23:23:38.613Z,5.82
2022-11-12T23:26:11.147Z,5.99
2022-11-12T23:28:38.082Z,6.12
2022-11-12T23:31:06.658Z,6.07
2022-11-12T23:33:33.292Z,5.98
2022-11-12T23:36:07.476Z,6.08
2022-11-12T23:38:34.385Z,6.25
2022-11-12T23:41:01.971Z,6.27
2022-11-12T23:43:28.611Z,6.45
2022-11-12T23:45:55.655Z,6.37
2022-11-12T23:48:22.771Z,6.34
2022-11-12T23:50:50.882Z,6.41
2022-11-12T23:53:18.209Z,6.32
2022-11-12T23:55:45.060Z,6.26
2022-11-12T23:58:11.647Z,6.28
